Averill Park, NY (12018)

9:34 AM EST on February 08, 2016 (GMT -0500)
Taborton Mountain | | Change Station
CLOSE
Current Station
Personal Weather Station
Location: Averill Park, NY
Elevation: 1296 ft
Nearby Weather Stations

Elev 1296 ft 42.61 °N, 73.48 °W | Updated 28 seconds ago

Mostly Cloudy
Mostly Cloudy
27.0 °F
Feels Like 27 °F
N
0.0
Wind Variable Wind from NNE
Gusts 2.0 mph

Today
High -- | Low -- °F
--% Chance of Precip.
Yesterday
High -- | Low -- °F
Precip. -- in
Pressure 29.91 in
Visibility 10.0 miles
Clouds Few 3200 ft
Mostly Cloudy 15000 ft
Mostly Cloudy 18000 ft
Overcast 26000 ft
Windchill 27 °F
Dew Point 5 °F
Humidity 39%
Rainfall 0.00 in
Snow Depth Not available.
7:00 AM 5:16 PM
Waning Crescent, 0% visible
METAR KALB 081351Z 35006KT 10SM FEW032 BKN150 BKN180 OVC260 M01/M07 A2990 RMK AO2 SLP127 T10111067
Pressure 29.91 in
Visibility 10.0 miles
Clouds Few 3200 ft
Mostly Cloudy 15000 ft
Mostly Cloudy 18000 ft
Overcast 26000 ft
Windchill 27 °F
Dew Point 5 °F
Humidity 39%
Rainfall 0.00 in
Snow Depth Not available.
7:00 AM 5:16 PM
Waning Crescent, 0% visible
METAR KALB 081351Z 35006KT 10SM FEW032 BKN150 BKN180 OVC260 M01/M07 A2990 RMK AO2 SLP127 T10111067

10-Day Weather Forecast

Almanac

Astronomy

Feb. 08, 2016 Rise Set
Actual Time
Civil Twilight
Nautical Twilight
Astronomical Twilight
Moon
Length of Visible Light
Length of Day
Tomorrow will be .
, % of the Moon is Illuminated

Today's Extremes

State Highs State Lows

Community

WunderPhotos

Upload Photos

1,891,437 photos uploaded!

WunderBlog® & News

Nearby

Air Quality

  Air Quality AQ Index Pollutant
Not available.

Snow Depth

Station Depth Elevation

Earthquake Activity

City Distance Mag. Time & Date
Minimum magnitude displayed is 2.5.

Coastal Water Temperatures

Place Temperature

Stations

Nearby Weather Stations

Station Location Temp. Windchill Dew Point Humidity Wind Precip. Elev Updated Type
                   

Watches & Warnings

There are currently no watches in effect.